Terminal Aerodrome Forecast
Issued by NWS Atlanta, GA

Home | Current Version | Previous Version | Text Only | Print | Product List | Glossary On
Versions: 1 2 3 4 5 6 7 8 9 10 11 12 13 14 15 16 17 18 19 20 21 22 23 24 25 26 27 28 29 30 31 32 33 34 35 36 37 38 39
975
FTAK31 PAJN 301739
TAFAHN
TAF
PAHN 301739Z 3018/0118 09010G18KT P6SM -RA BKN025 OVC040
     FM302000 09014G22KT 5SM -RA BR SCT010 BKN018 OVC030
     FM302300 09016G26KT 3SM RA BR BKN015 OVC025
     FM010300 10016G28KT 5SM -RA BR BKN015 OVC025
     FM010600 09015G25KT 6SM -SHRA BR BKN015 OVC025
     FM011200 09012KT P6SM -SHRA BKN015 OVC025
      AMD LTD TO CLD VIS AND WIND=

USA.gov is the U.S. government's official web portal to all federal, state and local government web resources and services.